Middletown, Maryland
Current Conditions -  °F | °C
As of 11:15 PM on Sunday 25 Jan 2015 (Local Time) from KFDK Reporting Station
Haze Haze  
Wind Chill: 32°   Ceiling: 4500
Heat Index: 37°   Visibility: 5mi
Dew Point: 34°   Wind: 7mph
Humidity: 87%   Direction: 10°N
Pressure: 29.88"   Gusts: NA
Location:  39.44°N, 77.54°W
Report Text: KFDK 260415Z AUTO 01006KT 5SM HZ SCT007 OVC045 03/01 A2988 RMK AO2
Loading
Personal Weather Stations






























Interactive Weather Map New forecast layout! Learn more

10-Day Weather Forecast

Advertisements
Track Severe Weather on mobile